Time;durP1;ratioP1;P1;durP2;ratioP2;P2;SDS_P1;SDS_P2;PMS_P1;PMS_P2;Temp;Humidity;BMP_temperature;BMP_pressure;BME280_temperature;BME280_humidity;BME280_pressure;Samples;Min_cycle;Max_cycle;Signal;HPM_P1;HPM_P2
2022/03/01 00:02:01;;;;;;;11.27;7.27;;;0.30;99.90;;;;;;3857517;37;20431;-60
2022/03/01 00:04:27;;;;;;;11.63;7.55;;;0.30;99.90;;;;;;4420248;32;20546;-61
2022/03/01 00:06:53;;;;;;;9.80;6.82;;;0.30;99.90;;;;;;4405427;32;20105;-61
2022/03/01 00:09:20;;;;;;;12.45;7.50;;;0.30;99.90;;;;;;4418773;32;20523;-60
2022/03/01 00:11:46;;;;;;;12.75;7.37;;;0.30;99.90;;;;;;4418364;32;20073;-61
2022/03/01 00:14:12;;;;;;;12.25;7.62;;;0.30;99.90;;;;;;4418366;32;20079;-60
2022/03/01 00:16:39;;;;;;;12.52;8.40;;;0.30;99.90;;;;;;4419701;32;20087;-61
2022/03/01 00:19:05;;;;;;;13.65;8.45;;;0.30;99.90;;;;;;4418027;32;20089;-61
2022/03/01 00:21:32;;;;;;;10.90;7.10;;;0.30;99.90;;;;;;4405738;32;20084;-61
2022/03/01 00:23:58;;;;;;;15.10;8.40;;;0.30;99.90;;;;;;4419656;32;20519;-60
2022/03/01 00:26:25;;;;;;;12.52;7.37;;;0.30;99.90;;;;;;4412587;32;20165;-60
2022/03/01 00:28:51;;;;;;;13.52;7.68;;;0.30;99.90;;;;;;4403609;32;20077;-61
2022/03/01 00:31:18;;;;;;;10.98;7.00;;;0.30;99.90;;;;;;4403668;32;20073;-60
2022/03/01 00:33:44;;;;;;;12.82;7.43;;;0.40;99.90;;;;;;4403575;32;20093;-62
2022/03/01 00:36:10;;;;;;;11.63;7.50;;;0.30;99.90;;;;;;4403601;32;20111;-62
2022/03/01 00:38:37;;;;;;;12.45;7.53;;;0.40;99.90;;;;;;4405418;32;20077;-61
2022/03/01 00:41:03;;;;;;;13.32;8.43;;;0.40;99.90;;;;;;4407756;32;20073;-61
2022/03/01 00:43:30;;;;;;;12.98;8.18;;;0.30;99.90;;;;;;4404024;32;20119;-62
2022/03/01 00:45:56;;;;;;;15.55;9.27;;;0.30;99.90;;;;;;4402869;32;20169;-61
2022/03/01 00:48:23;;;;;;;13.88;8.75;;;0.40;99.90;;;;;;4402532;32;20069;-60
2022/03/01 00:50:49;;;;;;;13.77;8.23;;;0.50;99.90;;;;;;4402832;32;20081;-60
2022/03/01 00:53:16;;;;;;;12.50;8.02;;;0.50;99.90;;;;;;4404094;32;20488;-61
2022/03/01 00:55:43;;;;;;;13.70;7.35;;;0.50;99.90;;;;;;4390460;32;20520;-60
2022/03/01 00:58:09;;;;;;;12.07;7.43;;;0.50;99.90;;;;;;4405444;32;20077;-60
2022/03/01 01:00:35;;;;;;;13.77;8.10;;;0.50;99.90;;;;;;4405818;32;20193;-61
2022/03/01 01:03:02;;;;;;;13.48;8.20;;;0.50;99.90;;;;;;4390748;32;20162;-60
2022/03/01 01:05:29;;;;;;;15.52;7.53;;;0.40;99.90;;;;;;4407355;32;20072;-61
2022/03/01 01:07:55;;;;;;;14.55;8.02;;;0.40;99.90;;;;;;4408318;32;20086;-60
2022/03/01 01:10:22;;;;;;;15.73;8.40;;;0.40;99.90;;;;;;4404776;32;20085;-60
2022/03/01 01:12:48;;;;;;;13.52;8.25;;;0.50;99.90;;;;;;4396568;32;20164;-60
2022/03/01 01:15:17;;;;;;;13.68;8.55;;;0.50;99.90;;;;;;4392258;32;20104;-60
2022/03/01 01:17:45;;;;;;;16.10;8.77;;;0.40;99.90;;;;;;4392346;32;20812;-62
2022/03/01 01:20:12;;;;;;;14.68;9.00;;;0.50;99.90;;;;;;4392319;32;20147;-60
2022/03/01 01:22:42;;;;;;;13.25;8.65;;;0.50;99.90;;;;;;4393624;32;20172;-61
2022/03/01 01:25:14;;;;;;;14.93;8.25;;;0.40;99.90;;;;;;4393334;32;20081;-61
2022/03/01 01:27:43;;;;;;;15.07;8.40;;;0.40;99.90;;;;;;4393426;32;20077;-60
2022/03/01 01:30:16;;;;;;;14.77;8.20;;;0.50;99.90;;;;;;4392507;32;20074;-60
2022/03/01 01:32:43;;;;;;;14.00;8.23;;;0.40;99.90;;;;;;4395848;32;20066;-59
2022/03/01 01:35:12;;;;;;;11.95;7.57;;;0.40;99.90;;;;;;4392834;32;20569;-60
2022/03/01 01:37:39;;;;;;;14.68;8.20;;;0.40;99.90;;;;;;4392022;32;20169;-61
2022/03/01 01:40:09;;;;;;;14.07;8.80;;;0.30;99.90;;;;;;4391615;32;20524;-60
2022/03/01 01:42:35;;;;;;;17.10;8.93;;;0.30;99.90;;;;;;4393150;32;20097;-60
2022/03/01 01:45:04;;;;;;;14.52;8.02;;;0.30;99.90;;;;;;4391878;32;20459;-62
2022/03/01 01:47:30;;;;;;;15.63;9.20;;;0.20;99.90;;;;;;4379521;32;20101;-61
2022/03/01 01:49:56;;;;;;;16.65;9.80;;;0.20;99.90;;;;;;4393304;32;20177;-61
2022/03/01 01:52:25;;;;;;;15.00;9.45;;;0.20;99.90;;;;;;4391876;32;20100;-61
2022/03/01 01:54:54;;;;;;;18.23;9.85;;;0.20;99.90;;;;;;4379147;32;20077;-61
2022/03/01 01:57:23;;;;;;;14.35;9.05;;;0.20;99.90;;;;;;4393625;32;20142;-60
2022/03/01 01:59:52;;;;;;;15.98;9.55;;;0.20;99.90;;;;;;4393270;32;20144;-61
2022/03/01 02:02:21;;;;;;;16.40;9.98;;;0.20;99.90;;;;;;4392837;32;20076;-62
2022/03/01 02:04:48;;;;;;;10.73;6.68;;;0.20;99.90;;;;;;4391596;32;20135;-62
2022/03/01 02:07:15;;;;;;;12.65;7.75;;;0.20;99.90;;;;;;4391294;32;20528;-61
2022/03/01 02:09:42;;;;;;;13.35;7.80;;;0.20;99.90;;;;;;4391298;32;20074;-60
2022/03/01 02:12:09;;;;;;;10.23;6.72;;;0.20;99.90;;;;;;4380381;32;20089;-60
2022/03/01 02:14:38;;;;;;;10.82;5.90;;;0.20;99.90;;;;;;4366569;32;20086;-60
2022/03/01 02:17:08;;;;;;;8.93;5.62;;;0.20;99.90;;;;;;4393072;32;20078;-61
2022/03/01 02:19:35;;;;;;;7.65;5.12;;;0.10;99.90;;;;;;4391542;32;20074;-60
2022/03/01 02:22:02;;;;;;;8.80;5.32;;;0.20;99.90;;;;;;4392510;32;20094;-60
2022/03/01 02:24:30;;;;;;;9.38;6.25;;;0.10;99.90;;;;;;4377872;32;20101;-61
2022/03/01 02:26:59;;;;;;;7.43;5.00;;;0.10;99.90;;;;;;4390991;32;20078;-61
2022/03/01 02:29:26;;;;;;;8.40;5.35;;;0.10;99.90;;;;;;4380415;32;20080;-60
2022/03/01 02:31:55;;;;;;;7.32;4.45;;;0.10;99.90;;;;;;4403480;32;20073;-61
2022/03/01 02:34:22;;;;;;;6.60;4.75;;;0.00;99.90;;;;;;4378799;32;20160;-61
2022/03/01 02:36:49;;;;;;;6.75;4.50;;;0.00;99.90;;;;;;4392344;32;20078;-60
2022/03/01 02:39:17;;;;;;;8.10;4.62;;;-0.10;99.90;;;;;;4378648;32;20089;-61
2022/03/01 02:41:46;;;;;;;8.40;5.18;;;0.00;99.90;;;;;;4390790;32;20454;-60
2022/03/01 02:44:13;;;;;;;8.32;5.47;;;-0.10;99.90;;;;;;4391178;32;20100;-60
2022/03/01 02:46:40;;;;;;;8.00;5.35;;;-0.10;99.90;;;;;;4392437;32;20070;-60
2022/03/01 02:49:08;;;;;;;7.90;5.47;;;-0.10;99.90;;;;;;4392764;32;20086;-61
2022/03/01 02:51:35;;;;;;;7.97;5.47;;;-0.20;99.90;;;;;;4391843;32;20082;-61
2022/03/01 02:54:03;;;;;;;6.68;4.05;;;-0.20;99.90;;;;;;4396645;32;20157;-63
2022/03/01 02:56:30;;;;;;;7.68;5.00;;;-0.30;99.90;;;;;;4393605;32;20084;-61
2022/03/01 02:58:58;;;;;;;9.60;5.85;;;-0.30;99.90;;;;;;4394838;32;20160;-60
2022/03/01 03:01:28;;;;;;;7.68;4.95;;;-0.30;99.90;;;;;;4392411;32;20089;-60
2022/03/01 03:03:56;;;;;;;7.10;5.12;;;-0.30;99.90;;;;;;4392703;32;20498;-61
2022/03/01 03:06:23;;;;;;;9.18;5.72;;;-0.40;99.90;;;;;;4366627;32;20475;-60
2022/03/01 03:08:50;;;;;;;8.00;5.50;;;-0.30;99.90;;;;;;4378965;32;20086;-62
2022/03/01 03:11:17;;;;;;;7.97;5.03;;;-0.40;99.90;;;;;;4391864;32;20234;-61
2022/03/01 03:13:43;;;;;;;8.40;4.90;;;-0.40;99.90;;;;;;4390815;32;20093;-61
2022/03/01 03:16:13;;;;;;;6.60;4.22;;;-0.40;99.90;;;;;;4390357;32;20153;-64
2022/03/01 03:18:39;;;;;;;7.30;4.95;;;-0.40;99.90;;;;;;4391941;32;20089;-60
2022/03/01 03:21:06;;;;;;;7.85;5.28;;;-0.50;99.90;;;;;;4390623;32;20070;-61
2022/03/01 03:23:34;;;;;;;7.25;5.10;;;-0.40;99.90;;;;;;4390559;32;20069;-60
2022/03/01 03:26:00;;;;;;;7.00;4.53;;;-0.40;99.90;;;;;;4392141;32;20158;-60
2022/03/01 03:28:27;;;;;;;6.87;4.87;;;-0.50;99.90;;;;;;4377555;32;20444;-61
2022/03/01 03:30:54;;;;;;;7.05;4.30;;;-0.50;99.90;;;;;;4390005;32;20069;-60
2022/03/01 03:33:20;;;;;;;7.30;4.72;;;-0.50;99.90;;;;;;4390344;32;20171;-61
2022/03/01 03:35:47;;;;;;;6.80;4.25;;;-0.40;99.90;;;;;;4391474;32;20081;-60
2022/03/01 03:38:44;;;;;;;;;;;-0.40;99.90;;;;;;3857850;37;19958;-62
2022/03/01 03:41:10;;;;;;;8.93;5.27;;;-0.50;99.90;;;;;;4406374;32;19981;-60
2022/03/01 03:43:37;;;;;;;7.70;5.72;;;-0.40;99.90;;;;;;4420199;32;20092;-62
2022/03/01 03:46:03;;;;;;;7.35;5.35;;;-0.50;99.90;;;;;;4393063;32;20081;-62
2022/03/01 03:48:30;;;;;;;9.70;4.72;;;-0.40;99.90;;;;;;4393176;32;20084;-61
2022/03/01 03:50:56;;;;;;;7.97;4.70;;;-0.40;99.90;;;;;;4419793;32;20100;-61
2022/03/01 03:53:23;;;;;;;7.65;4.87;;;-0.40;99.90;;;;;;4420959;32;20516;-61
2022/03/01 03:55:49;;;;;;;8.20;5.22;;;-0.40;99.90;;;;;;4419662;32;20164;-62
2022/03/01 03:58:15;;;;;;;8.57;5.37;;;-0.40;99.90;;;;;;4405758;32;20515;-61
2022/03/01 04:00:42;;;;;;;8.40;5.12;;;-0.50;99.90;;;;;;4419963;32;20179;-61
2022/03/01 04:03:08;;;;;;;8.85;5.55;;;-0.40;99.90;;;;;;4405869;32;20089;-61
2022/03/01 04:05:35;;;;;;;7.57;4.28;;;-0.30;99.90;;;;;;4405457;32;20104;-61
2022/03/01 04:08:02;;;;;;;7.75;4.90;;;-0.40;99.90;;;;;;4405531;32;20085;-60
2022/03/01 04:10:28;;;;;;;7.28;4.57;;;-0.40;99.90;;;;;;4419824;32;20164;-61
2022/03/01 04:12:54;;;;;;;8.98;5.37;;;-0.40;99.90;;;;;;4405993;32;20176;-61
2022/03/01 04:15:21;;;;;;;10.00;5.43;;;-0.40;99.90;;;;;;4405673;32;20080;-61
2022/03/01 04:17:47;;;;;;;11.70;5.78;;;-0.30;99.90;;;;;;4405283;32;20503;-62
2022/03/01 04:20:14;;;;;;;9.43;5.20;;;-0.30;99.90;;;;;;4406414;32;20077;-61
2022/03/01 04:22:40;;;;;;;6.55;4.22;;;-0.40;99.90;;;;;;4420855;32;20096;-61
2022/03/01 04:25:09;;;;;;;8.80;4.97;;;-0.40;99.90;;;;;;4405202;32;20089;-60
2022/03/01 04:27:35;;;;;;;7.07;4.20;;;-0.40;99.90;;;;;;4414076;32;20147;-60
2022/03/01 04:30:03;;;;;;;7.75;4.40;;;-0.40;99.90;;;;;;4402500;32;20156;-62
2022/03/01 04:32:29;;;;;;;6.30;3.67;;;-0.40;99.90;;;;;;4404228;32;20097;-61
2022/03/01 04:34:55;;;;;;;7.37;4.10;;;-0.40;99.90;;;;;;4404957;32;20157;-60
2022/03/01 04:37:22;;;;;;;6.57;3.83;;;-0.30;99.90;;;;;;4415560;32;20169;-62
2022/03/01 04:39:48;;;;;;;7.20;4.30;;;-0.30;99.90;;;;;;4399986;32;20077;-59
2022/03/01 04:42:14;;;;;;;7.30;5.10;;;-0.30;99.90;;;;;;4410113;32;20188;-61
2022/03/01 04:44:41;;;;;;;8.15;4.95;;;-0.30;99.90;;;;;;4403124;32;20566;-61
2022/03/01 04:47:07;;;;;;;6.45;3.90;;;-0.40;99.90;;;;;;4402747;32;20073;-60
2022/03/01 04:49:34;;;;;;;5.22;3.30;;;-0.40;99.90;;;;;;4394547;32;20066;-61
2022/03/01 04:52:00;;;;;;;5.57;3.83;;;-0.50;99.90;;;;;;4393657;32;20154;-61
2022/03/01 04:54:26;;;;;;;6.80;4.18;;;-0.50;99.90;;;;;;4380110;32;20584;-61
2022/03/01 04:56:53;;;;;;;5.82;4.00;;;-0.40;99.90;;;;;;4392362;32;20152;-61
2022/03/01 04:59:19;;;;;;;5.10;3.50;;;-0.50;99.90;;;;;;4393493;32;20539;-60
2022/03/01 05:01:46;;;;;;;5.07;3.30;;;-0.50;99.90;;;;;;4392072;32;20081;-60
2022/03/01 05:04:12;;;;;;;5.55;3.70;;;-0.50;99.90;;;;;;4379342;32;20157;-61
2022/03/01 05:06:38;;;;;;;4.68;3.10;;;-0.50;99.90;;;;;;4393361;32;20089;-60
2022/03/01 05:09:05;;;;;;;4.18;3.10;;;-0.50;99.90;;;;;;4380044;32;20112;-60
2022/03/01 05:11:31;;;;;;;4.30;2.80;;;-0.50;99.90;;;;;;4393243;32;20086;-60
2022/03/01 05:13:57;;;;;;;2.95;2.22;;;-0.40;99.90;;;;;;4379389;32;20094;-61
2022/03/01 05:16:24;;;;;;;3.53;2.30;;;-0.40;99.90;;;;;;4392595;32;20070;-59
2022/03/01 05:18:50;;;;;;;4.43;2.92;;;-0.50;99.90;;;;;;4394300;32;20518;-59
2022/03/01 05:21:16;;;;;;;5.78;3.20;;;-0.40;99.90;;;;;;4392075;32;20149;-61
2022/03/01 05:23:43;;;;;;;4.43;2.72;;;-0.40;99.90;;;;;;4392839;32;20089;-60
2022/03/01 05:26:09;;;;;;;4.62;3.12;;;-0.40;99.90;;;;;;4393085;32;20108;-61
2022/03/01 05:28:36;;;;;;;5.62;3.30;;;-0.40;99.90;;;;;;4393231;32;20089;-59
2022/03/01 05:31:02;;;;;;;6.65;4.28;;;-0.30;99.90;;;;;;4393429;32;20097;-59
2022/03/01 05:33:28;;;;;;;4.93;3.15;;;-0.30;99.90;;;;;;4379390;32;20085;-60
2022/03/01 05:35:55;;;;;;;4.10;2.72;;;-0.30;99.90;;;;;;4393055;32;20088;-59
2022/03/01 05:38:21;;;;;;;6.28;3.20;;;-0.30;99.90;;;;;;4391329;32;20153;-59
2022/03/01 05:40:48;;;;;;;4.57;3.00;;;-0.30;99.90;;;;;;4392654;32;20089;-60
2022/03/01 05:43:14;;;;;;;3.92;2.65;;;-0.30;99.90;;;;;;4392721;32;20101;-59
2022/03/01 05:45:41;;;;;;;5.18;2.78;;;-0.40;99.90;;;;;;4378652;32;20070;-61
2022/03/01 05:48:08;;;;;;;4.25;2.80;;;-0.40;99.90;;;;;;4392382;32;20077;-61
2022/03/01 05:50:34;;;;;;;4.65;2.90;;;-0.40;99.90;;;;;;4392005;32;20082;-61
2022/03/01 05:53:01;;;;;;;4.65;2.87;;;-0.40;99.90;;;;;;4391106;32;20162;-61
2022/03/01 05:55:27;;;;;;;5.40;3.00;;;-0.30;99.90;;;;;;4392402;32;20081;-61
2022/03/01 05:57:54;;;;;;;5.00;3.20;;;-0.30;99.90;;;;;;4378565;32;20074;-60
2022/03/01 06:00:21;;;;;;;4.55;3.10;;;-0.30;99.90;;;;;;4390529;32;20081;-59
2022/03/01 06:02:49;;;;;;;4.70;2.97;;;-0.20;99.90;;;;;;4392135;32;20074;-61
2022/03/01 06:05:17;;;;;;;6.07;3.62;;;-0.20;99.90;;;;;;4392401;32;20105;-60
2022/03/01 06:07:44;;;;;;;5.03;3.20;;;-0.20;99.90;;;;;;4392681;32;20077;-60
2022/03/01 06:10:11;;;;;;;4.43;3.12;;;-0.20;99.90;;;;;;4380546;32;20096;-60
2022/03/01 06:12:37;;;;;;;6.45;4.05;;;-0.10;99.90;;;;;;4390860;32;20083;-60
2022/03/01 06:17:44;;;;;;;5.40;3.20;;;-0.10;99.90;;;;;;3857146;37;20476;-60
2022/03/01 06:20:11;;;;;;;6.03;3.55;;;-0.20;99.90;;;;;;4419396;32;20155;-61
2022/03/01 06:22:40;;;;;;;4.53;3.00;;;0.00;99.90;;;;;;4419525;32;20161;-60
2022/03/01 06:25:08;;;;;;;4.57;3.28;;;-0.30;99.90;;;;;;4419055;32;20092;-60
2022/03/01 06:27:36;;;;;;;4.53;2.85;;;-0.20;99.90;;;;;;4403146;32;20158;-60
2022/03/01 06:30:05;;;;;;;4.22;3.10;;;-0.20;99.90;;;;;;4402969;32;20111;-60
2022/03/01 06:32:32;;;;;;;5.97;3.17;;;-0.20;99.90;;;;;;4404270;32;20158;-61
2022/03/01 06:34:58;;;;;;;4.65;3.15;;;0.00;99.90;;;;;;4391062;32;20245;-63
2022/03/01 06:37:25;;;;;;;5.68;3.55;;;0.00;99.90;;;;;;4405658;32;20076;-60
2022/03/01 06:39:53;;;;;;;5.78;3.92;;;-0.10;99.90;;;;;;4390691;32;20077;-60
2022/03/01 06:42:20;;;;;;;5.20;3.85;;;0.00;99.90;;;;;;4404157;32;20459;-60
2022/03/01 06:44:47;;;;;;;4.90;3.47;;;0.00;99.90;;;;;;4402741;32;20065;-60
2022/03/01 06:47:13;;;;;;;5.10;3.35;;;0.00;99.90;;;;;;4404263;32;20074;-61
2022/03/01 06:49:39;;;;;;;5.37;3.15;;;-0.10;99.90;;;;;;4403053;32;20526;-60
2022/03/01 06:52:06;;;;;;;5.30;3.30;;;0.00;99.90;;;;;;4402471;32;20077;-60
2022/03/01 06:54:33;;;;;;;5.75;3.55;;;0.00;99.90;;;;;;4404008;32;20073;-62
2022/03/01 06:56:59;;;;;;;6.47;3.80;;;0.10;99.90;;;;;;4389752;32;20078;-59
2022/03/01 07:01:06;;;;;;;5.20;3.67;;;0.10;99.90;;;;;;3832190;37;20066;-60
2022/03/01 07:03:34;;;;;;;6.37;3.90;;;-0.10;99.90;;;;;;4377837;32;20165;-62
2022/03/01 07:06:01;;;;;;;6.07;3.78;;;-0.10;99.90;;;;;;4404143;32;20070;-60
2022/03/01 07:08:27;;;;;;;5.90;3.90;;;0.00;99.90;;;;;;4378025;32;20159;-60
2022/03/01 07:10:56;;;;;;;7.07;3.92;;;0.00;99.90;;;;;;4390190;32;20078;-61
2022/03/01 07:13:22;;;;;;;5.62;3.62;;;0.00;99.90;;;;;;4390577;32;20062;-60
2022/03/01 07:15:48;;;;;;;6.15;4.03;;;0.00;99.90;;;;;;4377639;32;20089;-62
2022/03/01 07:18:15;;;;;;;4.40;3.35;;;-0.10;99.90;;;;;;4390275;32;20124;-61
2022/03/01 07:20:43;;;;;;;5.72;3.80;;;-0.10;99.90;;;;;;4404599;32;20092;-60
2022/03/01 07:23:10;;;;;;;7.95;4.35;;;-0.10;99.90;;;;;;4378587;32;20595;-60
2022/03/01 07:25:37;;;;;;;4.78;2.95;;;-0.10;99.90;;;;;;4403557;32;20100;-61
2022/03/01 07:28:04;;;;;;;6.78;4.62;;;-0.10;99.90;;;;;;4362816;32;20504;-60
2022/03/01 07:30:31;;;;;;;2.28;1.27;;;-0.10;99.90;;;;;;4362683;32;20108;-60
2022/03/01 07:32:58;;;;;;;3.62;1.98;;;-0.10;99.90;;;;;;4374819;32;20090;-60
2022/03/01 07:35:26;;;;;;;3.22;1.70;;;-0.10;99.90;;;;;;4362946;32;20093;-60
2022/03/01 07:37:53;;;;;;;4.57;1.75;;;0.00;99.90;;;;;;4390032;32;20524;-61
2022/03/01 07:40:21;;;;;;;6.32;3.25;;;0.00;99.90;;;;;;4362564;32;20085;-60
2022/03/01 07:42:48;;;;;;;7.62;5.03;;;0.00;99.90;;;;;;4389311;32;20108;-60
2022/03/01 07:45:14;;;;;;;7.40;4.65;;;0.00;99.90;;;;;;4362377;32;20085;-60
2022/03/01 07:47:41;;;;;;;6.35;3.22;;;0.20;99.90;;;;;;4362942;32;20089;-60
2022/03/01 07:50:09;;;;;;;7.87;4.60;;;0.20;99.90;;;;;;4375278;32;20476;-61
2022/03/01 07:52:35;;;;;;;7.87;4.50;;;0.20;99.90;;;;;;4388926;32;20063;-60
2022/03/01 07:55:03;;;;;;;8.30;5.03;;;0.30;99.90;;;;;;4362765;32;20495;-61
2022/03/01 07:57:29;;;;;;;6.70;4.65;;;0.30;99.90;;;;;;4374509;32;20082;-60
2022/03/01 07:59:55;;;;;;;7.95;5.35;;;0.20;99.90;;;;;;4374616;32;20173;-60
2022/03/01 08:02:22;;;;;;;6.40;4.20;;;0.20;99.90;;;;;;4375028;32;20092;-60
2022/03/01 08:04:48;;;;;;;7.62;4.15;;;0.30;99.90;;;;;;4388774;32;20078;-60
2022/03/01 08:07:14;;;;;;;9.43;5.00;;;0.40;99.90;;;;;;4362357;32;20158;-61
2022/03/01 08:09:41;;;;;;;5.97;3.67;;;0.30;99.90;;;;;;4389727;32;20089;-62
2022/03/01 08:12:09;;;;;;;6.03;3.85;;;0.50;99.90;;;;;;4354001;32;20082;-60
2022/03/01 08:14:35;;;;;;;9.88;4.87;;;0.40;99.90;;;;;;4364566;32;20074;-61
2022/03/01 08:17:03;;;;;;;6.80;4.47;;;0.50;99.90;;;;;;4364685;32;20055;-61
2022/03/01 08:19:29;;;;;;;10.77;6.15;;;0.50;99.90;;;;;;4365201;32;20098;-62
2022/03/01 08:21:56;;;;;;;8.15;5.18;;;0.40;99.90;;;;;;4352239;32;20077;-61
2022/03/01 08:24:22;;;;;;;9.35;6.12;;;0.60;99.90;;;;;;4378332;32;20070;-61
2022/03/01 08:26:49;;;;;;;5.50;3.60;;;0.60;99.90;;;;;;4378329;32;20085;-61
2022/03/01 08:29:17;;;;;;;9.60;5.70;;;0.60;99.90;;;;;;4379149;32;20491;-61
2022/03/01 08:31:44;;;;;;;9.60;5.28;;;0.50;99.90;;;;;;4364695;32;20078;-61
2022/03/01 08:34:10;;;;;;;9.98;5.87;;;0.70;99.90;;;;;;4364484;32;20084;-61
2022/03/01 08:36:36;;;;;;;8.88;5.53;;;0.60;99.90;;;;;;4378367;32;20153;-61
2022/03/01 08:39:04;;;;;;;7.90;4.50;;;0.70;99.90;;;;;;4364454;32;20094;-61
2022/03/01 08:41:31;;;;;;;8.95;5.47;;;0.70;99.90;;;;;;4352042;32;20196;-60
2022/03/01 08:43:57;;;;;;;8.88;5.60;;;0.80;99.90;;;;;;4352090;32;20081;-60
2022/03/01 08:48:40;;;;;;;7.40;4.23;;;0.90;99.90;;;;;;3857838;37;20061;-62
2022/03/01 08:51:06;;;;;;;8.70;4.60;;;0.80;99.90;;;;;;4405983;32;20144;-61
2022/03/01 08:53:33;;;;;;;7.55;4.18;;;0.70;99.90;;;;;;4393527;32;20454;-60
2022/03/01 08:56:00;;;;;;;7.03;4.30;;;0.70;99.90;;;;;;4406514;32;20069;-61
2022/03/01 08:58:27;;;;;;;8.07;4.87;;;0.80;99.90;;;;;;4422147;32;20073;-61
2022/03/01 09:00:53;;;;;;;8.48;4.68;;;0.90;99.90;;;;;;4410196;32;20171;-61
2022/03/01 09:03:20;;;;;;;8.68;5.30;;;1.00;99.90;;;;;;4402113;32;20095;-61
2022/03/01 09:05:46;;;;;;;8.90;5.10;;;1.00;99.90;;;;;;4431195;32;20484;-61
2022/03/01 09:08:14;;;;;;;8.25;4.65;;;0.90;99.90;;;;;;4426208;32;20189;-63
2022/03/01 09:10:40;;;;;;;7.75;5.47;;;1.10;99.90;;;;;;4402246;32;20070;-60
2022/03/01 09:13:07;;;;;;;8.48;5.00;;;0.90;99.90;;;;;;4425409;32;20069;-61
2022/03/01 09:15:34;;;;;;;9.15;5.32;;;1.10;99.90;;;;;;4393593;32;20514;-60
2022/03/01 09:18:03;;;;;;;8.80;5.32;;;1.00;99.90;;;;;;4421360;32;20078;-61
2022/03/01 09:20:30;;;;;;;6.43;4.47;;;1.10;99.90;;;;;;4381227;32;20515;-61
2022/03/01 09:22:57;;;;;;;7.55;4.62;;;1.30;99.90;;;;;;4406437;32;20159;-61
2022/03/01 09:25:24;;;;;;;5.57;3.85;;;1.50;99.90;;;;;;4419802;32;20511;-60
2022/03/01 09:27:50;;;;;;;7.05;4.70;;;1.60;99.90;;;;;;4378092;32;20145;-60
2022/03/01 09:30:18;;;;;;;7.45;4.15;;;1.50;99.90;;;;;;4378543;32;20084;-61
2022/03/01 09:32:45;;;;;;;6.70;4.47;;;1.60;99.90;;;;;;4390654;32;20097;-61
2022/03/01 09:35:12;;;;;;;8.07;5.00;;;1.30;99.90;;;;;;4390044;32;20066;-60
2022/03/01 09:37:38;;;;;;;7.45;4.55;;;1.30;99.90;;;;;;4389692;32;20099;-61
2022/03/01 09:40:07;;;;;;;7.22;4.68;;;1.00;99.90;;;;;;4365091;32;20092;-60
2022/03/01 09:42:35;;;;;;;7.00;4.40;;;1.10;99.90;;;;;;4389651;32;20088;-60
2022/03/01 09:45:02;;;;;;;6.70;4.10;;;1.50;99.90;;;;;;4404262;32;20093;-60
2022/03/01 09:47:28;;;;;;;6.45;4.32;;;1.60;99.90;;;;;;4387111;32;20093;-60
2022/03/01 09:49:55;;;;;;;7.22;4.90;;;1.80;99.90;;;;;;4374654;32;20078;-62
2022/03/01 09:52:21;;;;;;;8.48;4.80;;;1.60;99.90;;;;;;4386992;32;20480;-61
2022/03/01 09:54:52;;;;;;;7.72;4.55;;;1.40;99.90;;;;;;4389100;32;20085;-59
2022/03/01 09:57:19;;;;;;;6.65;4.62;;;1.80;99.90;;;;;;4379489;32;20074;-60
2022/03/01 09:59:47;;;;;;;8.85;4.60;;;2.10;99.90;;;;;;4379634;32;20077;-60
2022/03/01 10:02:13;;;;;;;7.55;4.78;;;1.90;99.90;;;;;;4365115;32;20074;-61
2022/03/01 10:05:02;;;;;;;6.30;4.37;;;1.80;99.90;;;;;;4364502;32;20100;-61
2022/03/01 10:07:30;;;;;;;7.28;4.05;;;1.70;99.90;;;;;;4377542;32;20086;-60
2022/03/01 10:10:12;;;;;;;7.97;4.12;;;1.80;99.90;;;;;;4377569;32;20055;-62
2022/03/01 10:12:39;;;;;;;6.12;3.70;;;1.80;99.90;;;;;;4364531;32;20437;-62
2022/03/01 10:15:10;;;;;;;6.62;4.28;;;2.30;99.90;;;;;;4376811;32;20082;-60
2022/03/01 10:17:46;;;;;;;6.18;4.07;;;2.30;99.90;;;;;;4364633;32;20159;-61
2022/03/01 10:20:18;;;;;;;7.47;3.92;;;2.30;99.90;;;;;;4364759;32;20157;-60
2022/03/01 10:22:47;;;;;;;6.45;4.00;;;2.30;99.90;;;;;;4377777;32;20484;-60
2022/03/01 10:25:17;;;;;;;6.65;4.12;;;2.20;99.90;;;;;;4377020;32;20086;-60
2022/03/01 10:27:46;;;;;;;6.37;3.90;;;2.30;99.90;;;;;;4364519;32;20089;-60
2022/03/01 10:30:22;;;;;;;6.62;4.50;;;2.30;99.90;;;;;;4378203;32;20453;-61
2022/03/01 10:32:48;;;;;;;6.75;4.12;;;2.20;99.90;;;;;;4364512;32;20590;-60
2022/03/01 10:35:15;;;;;;;5.75;3.80;;;2.20;99.90;;;;;;4364486;32;20078;-60
2022/03/01 10:37:42;;;;;;;6.72;3.97;;;2.30;99.90;;;;;;4364605;32;20152;-60
2022/03/01 10:40:23;;;;;;;6.43;4.32;;;2.50;99.90;;;;;;4376602;32;20093;-61
2022/03/01 10:43:10;;;;;;;4.85;3.17;;;2.50;99.90;;;;;;4378561;32;20073;-61
2022/03/01 10:45:44;;;;;;;5.78;4.07;;;2.70;99.90;;;;;;4365368;32;20125;-61
2022/03/01 10:48:26;;;;;;;7.07;4.03;;;2.60;99.90;;;;;;4390968;32;20166;-61
2022/03/01 10:51:08;;;;;;;6.65;4.22;;;2.90;99.90;;;;;;4381904;32;20234;-61
2022/03/01 10:53:47;;;;;;;6.72;4.57;;;3.50;99.90;;;;;;4356034;32;20182;-62
2022/03/01 10:56:16;;;;;;;7.80;4.70;;;3.40;99.90;;;;;;4380863;32;20070;-61
2022/03/01 10:58:44;;;;;;;9.38;5.35;;;3.30;99.90;;;;;;4392746;32;20088;-60
2022/03/01 11:01:12;;;;;;;7.05;4.68;;;3.40;99.90;;;;;;4393008;32;20492;-60
2022/03/01 11:03:39;;;;;;;7.60;4.68;;;3.70;99.90;;;;;;4379486;32;20073;-60
2022/03/01 11:06:06;;;;;;;5.62;3.97;;;3.90;99.90;;;;;;4366905;32;20089;-60
2022/03/01 11:08:38;;;;;;;6.75;3.70;;;3.70;99.90;;;;;;4366188;32;20158;-60
2022/03/01 11:11:09;;;;;;;7.78;4.62;;;3.00;99.90;;;;;;4379314;32;20066;-60
2022/03/01 11:13:39;;;;;;;7.37;4.30;;;2.70;99.90;;;;;;4369055;32;20066;-61
2022/03/01 11:16:30;;;;;;;7.15;3.45;;;2.60;99.90;;;;;;4365952;32;20081;-61
2022/03/01 11:19:38;;;;;;;6.25;3.67;;;2.70;99.90;;;;;;4392850;32;20085;-61
2022/03/01 11:22:07;;;;;;;5.95;3.55;;;2.80;99.90;;;;;;4378972;32;20097;-60
2022/03/01 11:24:34;;;;;;;6.97;4.37;;;2.80;99.90;;;;;;4392726;32;20523;-61
2022/03/01 11:27:08;;;;;;;5.35;3.60;;;2.90;99.90;;;;;;4392535;32;20456;-60
2022/03/01 11:29:39;;;;;;;6.18;3.80;;;2.70;99.90;;;;;;4366393;32;20157;-61
2022/03/01 11:32:13;;;;;;;7.55;4.95;;;2.80;99.90;;;;;;4378207;32;20066;-61
2022/03/01 11:34:40;;;;;;;8.77;4.15;;;2.80;99.90;;;;;;4366407;32;20157;-62
2022/03/01 11:37:17;;;;;;;6.57;4.72;;;2.90;99.90;;;;;;4379031;32;20073;-63
2022/03/01 11:39:54;;;;;;;7.90;4.10;;;2.60;99.90;;;;;;4392240;32;20173;-61
2022/03/01 11:42:21;;;;;;;7.53;5.00;;;2.80;99.90;;;;;;4393033;32;20162;-61
2022/03/01 11:44:55;;;;;;;7.93;4.18;;;2.90;99.90;;;;;;4365951;32;20532;-61
2022/03/01 11:47:32;;;;;;;5.72;4.32;;;4.00;99.90;;;;;;4366002;32;20077;-62
2022/03/01 11:50:19;;;;;;;8.07;4.97;;;3.20;99.90;;;;;;4378752;32;20074;-61
2022/03/01 11:53:03;;;;;;;6.00;3.90;;;3.00;99.90;;;;;;4378411;32;20093;-60
2022/03/01 11:55:53;;;;;;;7.75;5.10;;;3.00;99.90;;;;;;4365886;32;20087;-61
2022/03/01 11:58:22;;;;;;;6.03;4.37;;;2.90;99.90;;;;;;4391796;32;20084;-61
2022/03/01 12:00:49;;;;;;;6.82;4.40;;;3.10;99.90;;;;;;4378448;32;20103;-61
2022/03/01 12:03:20;;;;;;;6.97;4.15;;;3.10;99.90;;;;;;4353343;32;20078;-61
2022/03/01 12:05:49;;;;;;;8.95;4.97;;;3.00;99.90;;;;;;4377918;32;20078;-61
2022/03/01 12:08:18;;;;;;;7.50;5.07;;;2.80;99.90;;;;;;4365677;32;20086;-61
2022/03/01 12:10:56;;;;;;;7.03;4.87;;;2.80;99.90;;;;;;4391626;32;20065;-61
2022/03/01 12:13:46;;;;;;;7.37;4.57;;;2.70;99.90;;;;;;4377794;32;20083;-62
2022/03/01 12:16:26;;;;;;;8.13;4.12;;;2.60;99.90;;;;;;4380342;32;20070;-61
2022/03/01 12:19:24;;;;;;;6.75;4.25;;;2.90;99.90;;;;;;4366916;32;20150;-61
2022/03/01 12:21:53;;;;;;;6.15;3.72;;;2.70;99.90;;;;;;4391293;32;20073;-62
2022/03/01 12:24:26;;;;;;;6.82;4.47;;;2.80;99.90;;;;;;4391337;32;20166;-61
2022/03/01 12:26:59;;;;;;;6.80;4.72;;;2.80;99.90;;;;;;4377572;32;20186;-61
2022/03/01 12:29:34;;;;;;;6.03;3.95;;;2.90;99.90;;;;;;4391899;32;20078;-61
2022/03/01 12:32:10;;;;;;;7.22;4.57;;;2.90;99.90;;;;;;4365363;32;20066;-60
2022/03/01 12:34:39;;;;;;;6.97;4.80;;;2.80;99.90;;;;;;4377893;32;20077;-61
2022/03/01 12:37:09;;;;;;;7.57;4.78;;;2.70;99.90;;;;;;4379310;32;20070;-60
2022/03/01 12:39:37;;;;;;;8.57;5.00;;;2.80;99.90;;;;;;4366310;32;20545;-61
2022/03/01 12:42:06;;;;;;;8.35;5.12;;;2.80;99.90;;;;;;4364884;32;20464;-61
2022/03/01 12:44:36;;;;;;;8.10;4.87;;;2.80;99.90;;;;;;4377232;32;20162;-61
2022/03/01 12:47:06;;;;;;;7.57;4.93;;;3.00;99.90;;;;;;4391352;32;20086;-61
2022/03/01 12:49:36;;;;;;;10.15;4.78;;;2.90;99.90;;;;;;4391587;32;20073;-61
2022/03/01 12:52:04;;;;;;;8.65;5.15;;;3.00;99.90;;;;;;4377105;32;20572;-61
2022/03/01 12:54:31;;;;;;;9.57;5.72;;;2.80;99.90;;;;;;4352740;32;20086;-61
2022/03/01 12:57:06;;;;;;;9.18;4.50;;;2.80;99.90;;;;;;4377037;32;20097;-61
2022/03/01 12:59:34;;;;;;;8.02;5.40;;;2.80;99.90;;;;;;4364973;32;20113;-61
2022/03/01 13:02:06;;;;;;;8.55;5.28;;;2.80;99.90;;;;;;4377127;32;20069;-61
2022/03/01 13:04:34;;;;;;;6.28;3.87;;;2.80;99.90;;;;;;4391123;32;20195;-62
2022/03/01 13:07:02;;;;;;;7.47;4.53;;;2.80;99.90;;;;;;4377270;32;20078;-62